createdAt,value
2022-09-03T21:45:07.821Z,42.23
2022-09-03T21:47:46.095Z,42.42
2022-09-03T21:50:19.604Z,42.56
2022-09-03T21:53:01.409Z,42.75
2022-09-03T21:55:50.699Z,43.31
2022-09-03T21:58:57.160Z,44.09
2022-09-03T22:01:57.133Z,44.76
2022-09-03T22:04:28.077Z,44.83
2022-09-03T22:07:08.210Z,45.17
2022-09-03T22:09:52.618Z,45.31
2022-09-03T22:12:23.819Z,45.43
2022-09-03T22:14:53.308Z,45.32
2022-09-03T22:17:20.858Z,46.17
2022-09-03T22:19:48.721Z,46.57
2022-09-03T22:22:26.864Z,47.13
2022-09-03T22:25:04.925Z,47.40
2022-09-03T22:28:01.080Z,47.84
2022-09-03T22:30:55.108Z,48.36
2022-09-03T22:33:55.462Z,48.69
2022-09-03T22:36:37.387Z,48.75
2022-09-03T22:39:30.649Z,49.14
2022-09-03T22:42:04.619Z,49.22
2022-09-03T22:45:07.172Z,49.52
2022-09-03T22:48:00.971Z,50.00
2022-09-03T22:50:36.881Z,50.04
2022-09-03T22:53:22.583Z,50.27
2022-09-03T22:56:05.433Z,50.29
2022-09-03T22:58:47.544Z,50.57
2022-09-03T23:01:35.035Z,50.66
2022-09-03T23:04:17.064Z,50.97
2022-09-03T23:07:13.296Z,51.26
2022-09-03T23:09:44.567Z,51.36
2022-09-03T23:12:21.549Z,51.58
2022-09-03T23:14:56.640Z,51.70
2022-09-03T23:22:48.339Z,51.89
2022-09-03T23:25:22.028Z,52.14
2022-09-03T23:28:11.081Z,52.29
2022-09-03T23:30:39.402Z,52.43
2022-09-03T23:33:08.704Z,52.55
2022-09-03T23:35:48.890Z,52.66
2022-09-03T23:38:38.391Z,52.64
2022-09-03T23:41:16.002Z,52.63
2022-09-03T23:44:03.342Z,52.58
2022-09-03T23:46:43.805Z,52.67
2022-09-03T23:49:26.850Z,52.82
2022-09-03T23:52:16.391Z,53.05
2022-09-03T23:54:49.812Z,53.19
2022-09-03T23:57:35.174Z,53.19
